Time;durP1;ratioP1;P1;durP2;ratioP2;P2;SDS_P1;SDS_P2;PMS_P1;PMS_P2;Temp;Humidity;BMP_temperature;BMP_pressure;BME280_temperature;BME280_humidity;BME280_pressure;Samples;Min_cycle;Max_cycle;Signal;HPM_P1;HPM_P2
2023/07/16 00:01:11;;;;;;;7.13;2.20;;;20.30;89.90;;;21.20;65.18;99922.25;4939541;29;20534;-86
2023/07/16 00:03:38;;;;;;;5.22;2.00;;;20.30;89.80;;;21.21;65.18;99918.44;4940612;29;20087;-86
2023/07/16 00:06:05;;;;;;;4.20;1.88;;;20.30;89.90;;;21.19;64.74;99920.63;4957182;28;20083;-85
2023/07/16 00:08:33;;;;;;;8.57;2.10;;;20.30;89.90;;;21.16;65.26;99920.41;4956230;28;20078;-86
2023/07/16 00:11:00;;;;;;;10.57;2.20;;;20.30;90.20;;;21.16;65.47;99917.69;4958812;28;20094;-85
2023/07/16 00:13:27;;;;;;;6.35;1.88;;;20.30;90.20;;;21.09;65.82;99918.91;4959290;28;20051;-86
2023/07/16 00:15:54;;;;;;;4.15;2.15;;;20.20;90.40;;;21.12;65.68;99914.78;4957148;29;20082;-86
2023/07/16 00:18:23;;;;;;;8.20;2.40;;;20.20;90.30;;;21.07;65.47;99915.66;4957611;28;20138;-85
2023/07/16 00:20:50;;;;;;;5.90;1.95;;;20.20;90.20;;;20.96;66.03;99922.34;4959419;28;20130;-86
2023/07/16 00:23:17;;;;;;;4.78;2.05;;;20.10;90.60;;;21.02;65.54;99923.88;4942051;29;20142;-86
2023/07/16 00:25:45;;;;;;;3.92;2.00;;;20.20;90.30;;;21.03;65.47;99922.78;4957901;29;20094;-86
2023/07/16 00:28:12;;;;;;;5.80;2.00;;;20.20;90.20;;;21.04;65.63;99927.09;4957884;28;20633;-86
2023/07/16 00:30:39;;;;;;;5.35;1.85;;;20.10;90.30;;;21.04;65.29;99923.59;4958864;28;20059;-85
2023/07/16 00:33:08;;;;;;;6.25;1.95;;;20.20;90.20;;;21.04;65.68;99934.44;4957881;29;20043;-86
2023/07/16 00:35:37;;;;;;;6.68;2.42;;;20.10;90.40;;;21.05;65.41;99925.19;4957466;29;20154;-86
2023/07/16 00:38:04;;;;;;;5.07;1.63;;;20.20;90.30;;;21.05;65.36;99955.81;4957546;28;20079;-86
2023/07/16 00:40:31;;;;;;;6.15;2.17;;;20.20;90.40;;;20.98;65.59;99957.28;4958817;28;20063;-86
2023/07/16 00:42:58;;;;;;;7.07;1.92;;;20.10;90.50;;;20.99;65.75;99948.88;4956781;29;20047;-86
2023/07/16 00:45:26;;;;;;;11.18;2.50;;;20.10;90.60;;;20.97;65.81;99951.06;4956536;29;20055;-86
2023/07/16 00:47:53;;;;;;;4.78;1.98;;;20.10;90.60;;;20.95;65.68;99952.47;4957644;28;20208;-85
2023/07/16 00:50:21;;;;;;;5.80;2.05;;;20.10;90.80;;;20.95;65.59;99941.63;4956412;28;20079;-85
2023/07/16 00:52:50;;;;;;;6.45;2.45;;;20.10;90.80;;;20.95;65.70;99947.84;4956674;29;20047;-85
2023/07/16 00:55:18;;;;;;;5.93;2.03;;;20.10;90.50;;;20.97;65.29;99945.63;4956432;28;20090;-85
2023/07/16 00:57:46;;;;;;;4.85;2.25;;;20.00;90.20;;;20.91;65.39;99940.59;4956790;29;20150;-85
2023/07/16 01:00:14;;;;;;;4.43;1.95;;;20.00;90.30;;;20.94;65.19;99940.81;4955752;28;20579;-86
2023/07/16 01:02:41;;;;;;;5.40;2.20;;;20.00;90.00;;;20.95;64.82;99947.84;4957769;28;20637;-86
2023/07/16 01:05:09;;;;;;;8.88;2.50;;;20.00;89.70;;;20.96;64.73;99954.06;4956216;28;20820;-86
2023/07/16 01:07:38;;;;;;;4.68;1.92;;;20.00;89.50;;;20.93;64.41;99955.44;4957725;28;20419;-86
2023/07/16 01:10:09;;;;;;;7.68;2.30;;;20.00;89.50;;;20.91;64.64;99957.66;4955423;28;20094;-86
2023/07/16 01:12:37;;;;;;;;;;;20.00;89.70;;;20.89;64.65;99956.34;4956736;29;20472;-85
2023/07/16 01:15:06;;;;;;;8.95;2.17;;;19.90;89.70;;;20.86;64.82;99960.44;4957916;28;19926;-86
2023/07/16 01:17:33;;;;;;;6.03;2.20;;;20.00;89.90;;;20.83;64.88;99967.22;4955799;28;20405;-85
2023/07/16 01:20:02;;;;;;;7.43;2.05;;;19.90;89.80;;;20.82;64.96;99953.97;4956109;28;20051;-86
2023/07/16 01:23:00;;;;;;;5.28;2.20;;;19.90;90.00;;;20.81;64.97;99958.59;4956335;28;20110;-86
2023/07/16 01:25:51;;;;;;;5.43;1.95;;;19.90;90.20;;;20.77;64.60;99973.03;4957420;28;20474;-86
2023/07/16 01:28:39;;;;;;;8.52;1.83;;;19.80;89.90;;;20.75;64.73;99961.69;4955965;28;20040;-86
2023/07/16 01:31:09;;;;;;;6.18;2.28;;;19.80;90.00;;;20.70;64.97;99962.53;4955542;28;20082;-86
2023/07/16 01:33:43;;;;;;;6.55;1.98;;;19.80;90.20;;;20.71;64.73;99960.63;4957167;28;20039;-86
2023/07/16 01:36:15;;;;;;;5.97;1.70;;;19.80;89.90;;;20.71;64.61;99968.78;4957197;28;20073;-86
2023/07/16 01:38:42;;;;;;;6.32;2.20;;;19.80;89.70;;;20.72;64.73;99962.25;4955087;28;20524;-86
2023/07/16 01:41:10;;;;;;;6.95;1.95;;;19.80;89.70;;;20.71;64.90;99960.63;4955905;29;20087;-85
2023/07/16 01:43:37;;;;;;;5.65;2.30;;;19.80;90.00;;;20.72;64.25;99964.97;4955958;29;20079;-86
2023/07/16 01:46:05;;;;;;;5.90;1.98;;;19.80;89.70;;;20.71;64.28;99964.16;4957180;28;20120;-86
2023/07/16 01:48:36;;;;;;;5.13;1.90;;;19.80;89.50;;;20.71;64.19;99963.34;4955664;28;20043;-86
2023/07/16 01:51:04;;;;;;;7.03;2.20;;;19.80;89.40;;;20.69;64.45;99970.94;4957632;28;20039;-85
2023/07/16 01:53:32;;;;;;;6.55;2.15;;;19.80;89.40;;;20.69;64.32;99976.38;4957735;28;20129;-86
2023/07/16 01:55:59;;;;;;;6.78;2.10;;;19.70;89.50;;;20.67;64.45;99981.28;4956274;29;20737;-86
2023/07/16 01:58:27;;;;;;;8.88;1.98;;;19.70;89.50;;;20.69;64.27;99979.06;4955799;28;20058;-86
2023/07/16 02:00:54;;;;;;;7.22;2.05;;;19.70;89.70;;;20.69;64.85;99984.50;4955791;28;20075;-85
2023/07/16 02:03:22;;;;;;;9.52;2.20;;;19.80;90.20;;;20.68;65.31;99980.19;4955179;29;20086;-86
2023/07/16 02:05:51;;;;;;;9.60;2.47;;;19.80;90.40;;;20.62;65.37;99984.84;4955103;29;20138;-86
2023/07/16 02:08:18;;;;;;;7.75;2.70;;;19.70;90.70;;;20.61;65.46;99987.88;4955687;28;20445;-86
2023/07/16 02:10:48;;;;;;;6.07;2.47;;;19.70;90.80;;;20.65;65.46;99992.44;4955940;29;20062;-86
2023/07/16 02:13:15;;;;;;;8.00;2.70;;;19.80;91.00;;;20.66;65.97;99998.66;4957065;28;20047;-86
2023/07/16 02:15:44;;;;;;;4.63;2.65;;;19.80;91.20;;;20.65;65.91;99995.13;4955550;29;20051;-86
2023/07/16 02:18:12;;;;;;;5.05;2.00;;;19.80;91.30;;;20.68;66.33;99996.44;4955215;28;20044;-86
2023/07/16 02:20:39;;;;;;;5.25;2.40;;;19.80;91.60;;;20.68;66.12;100002.66;4955174;29;20082;-86
2023/07/16 02:23:08;;;;;;;4.60;2.33;;;19.80;91.50;;;20.67;66.11;99994.84;4956654;28;20186;-86
2023/07/16 02:25:35;;;;;;;5.75;2.42;;;19.80;91.40;;;20.67;66.12;99994.84;4954864;29;20102;-85
2023/07/16 02:28:02;;;;;;;7.57;2.70;;;19.80;91.40;;;20.66;65.95;99994.03;4955492;29;20795;-86
2023/07/16 02:30:31;;;;;;;8.38;2.53;;;19.80;91.20;;;20.61;66.50;99987.88;4957063;28;20048;-85
2023/07/16 02:32:58;;;;;;;6.28;2.72;;;19.80;91.50;;;20.60;66.26;99999.81;4959947;29;20098;-85
2023/07/16 02:35:27;;;;;;;9.00;2.50;;;19.80;91.40;;;20.61;66.08;100004.13;4959645;29;20051;-86
2023/07/16 02:37:56;;;;;;;8.55;2.20;;;19.80;91.10;;;20.62;66.26;100011.16;4959975;29;20051;-85
2023/07/16 02:40:25;;;;;;;6.65;2.45;;;19.80;91.20;;;20.62;66.39;100017.38;4958840;28;20134;-86
2023/07/16 02:42:52;;;;;;;5.82;2.55;;;19.80;91.40;;;20.62;65.96;100022.00;4960093;28;20078;-85
2023/07/16 02:45:20;;;;;;;6.88;2.33;;;19.80;91.60;;;20.65;66.39;100024.13;4958829;29;20496;-86
2023/07/16 02:47:47;;;;;;;6.65;1.85;;;19.80;91.50;;;20.65;66.53;100019.53;4958657;29;20051;-85
2023/07/16 02:50:17;;;;;;;10.13;2.33;;;19.80;91.70;;;20.63;66.79;100021.69;4958425;28;20076;-85
2023/07/16 02:52:44;;;;;;;6.63;2.00;;;19.80;91.80;;;20.56;66.52;100030.19;4960173;28;20043;-86
2023/07/16 02:55:11;;;;;;;8.75;2.50;;;19.70;91.90;;;20.52;66.69;100021.00;4958359;29;20043;-86
2023/07/16 02:57:40;;;;;;;7.65;2.20;;;19.70;92.10;;;20.52;66.74;100023.72;4958691;28;20063;-86
2023/07/16 03:00:10;;;;;;;6.35;2.35;;;19.70;92.00;;;20.50;66.74;100019.69;4958690;28;20070;-86
2023/07/16 03:02:37;;;;;;;4.78;2.13;;;19.70;92.00;;;20.51;66.59;100027.53;4959097;29;20058;-85
2023/07/16 03:05:05;;;;;;;4.97;2.10;;;19.70;92.00;;;20.49;66.27;100032.41;4958168;28;20059;-86
2023/07/16 03:07:33;;;;;;;8.88;2.13;;;19.70;91.60;;;20.41;66.41;100024.09;4958437;29;20083;-86
2023/07/16 03:10:01;;;;;;;7.15;2.10;;;19.60;91.20;;;20.37;65.95;100031.19;4957841;28;20045;-86
2023/07/16 03:12:28;;;;;;;8.55;2.60;;;19.60;91.20;;;20.25;66.33;100036.97;4958176;28;20051;-86
2023/07/16 03:14:57;;;;;;;4.60;2.13;;;19.50;91.30;;;20.21;66.26;100036.75;4958514;28;20054;-86
2023/07/16 03:17:24;;;;;;;10.88;2.33;;;19.50;91.40;;;20.21;66.09;100025.94;4959675;28;20556;-86
2023/07/16 03:19:52;;;;;;;5.82;2.33;;;19.50;91.40;;;20.22;66.24;100042.97;4957933;28;20453;-86
2023/07/16 03:22:19;;;;;;;8.98;2.47;;;19.50;91.40;;;20.18;65.85;100047.34;4957991;28;20130;-86
2023/07/16 03:24:47;;;;;;;9.00;2.15;;;19.40;90.80;;;20.09;65.79;100051.75;4957717;28;20051;-86
2023/07/16 03:27:14;;;;;;;5.15;1.90;;;19.40;90.40;;;20.13;65.47;100050.09;4958016;28;20056;-86
2023/07/16 03:29:43;;;;;;;7.57;2.63;;;19.40;90.60;;;20.10;65.53;100056.06;4957359;28;20776;-86
2023/07/16 03:32:15;;;;;;;7.93;2.60;;;19.40;90.30;;;20.09;65.54;100060.69;4957700;28;20469;-86
2023/07/16 03:34:42;;;;;;;11.50;2.38;;;19.40;90.40;;;20.10;65.70;100056.06;4959282;28;20043;-85
2023/07/16 03:37:09;;;;;;;7.00;2.30;;;19.30;90.40;;;20.08;65.21;100069.09;4959203;28;20078;-86
2023/07/16 03:39:37;;;;;;;7.70;2.30;;;19.30;90.60;;;20.02;64.87;100066.44;4973039;28;20043;-85
2023/07/16 03:42:05;;;;;;;9.23;2.53;;;19.20;90.20;;;20.00;65.22;100062.38;4973473;28;20523;-85
2023/07/16 03:44:32;;;;;;;5.63;2.13;;;19.20;90.20;;;20.01;64.96;100072.94;4958068;29;20487;-86
2023/07/16 03:47:01;;;;;;;5.03;1.85;;;19.20;90.00;;;20.02;64.26;100082.69;4958028;29;20047;-86
2023/07/16 03:49:30;;;;;;;8.82;2.40;;;19.20;89.50;;;19.96;64.40;100080.28;4973694;28;20134;-86
2023/07/16 03:51:58;;;;;;;7.10;2.20;;;19.10;89.30;;;19.98;64.42;100080.81;4957998;28;20436;-86
2023/07/16 03:54:25;;;;;;;12.13;2.72;;;19.10;89.50;;;19.95;63.75;100082.19;4957644;29;20464;-86
2023/07/16 03:56:52;;;;;;;8.27;2.30;;;19.10;89.10;;;19.89;63.84;100093.34;4957874;28;20142;-86
2023/07/16 03:59:20;;;;;;;10.13;2.60;;;19.00;88.90;;;19.74;63.84;100097.78;4973623;28;20504;-86
2023/07/16 04:01:47;;;;;;;10.07;2.45;;;19.00;88.70;;;19.74;64.21;100096.97;4973700;28;20053;-86
2023/07/16 04:04:15;;;;;;;5.18;2.00;;;18.90;89.10;;;19.78;63.58;100092.63;4957730;29;20040;-86
2023/07/16 04:06:43;;;;;;;10.23;2.80;;;19.00;88.70;;;19.74;63.52;100102.38;4973369;28;20071;-86
2023/07/16 04:09:11;;;;;;;9.63;2.58;;;18.90;88.30;;;19.77;63.39;100104.53;4957151;28;20041;-86
2023/07/16 04:11:38;;;;;;;8.70;2.42;;;19.00;88.70;;;19.79;63.85;100100.44;4959212;28;20075;-86
2023/07/16 04:14:05;;;;;;;8.38;2.60;;;19.00;88.90;;;19.79;63.43;100099.63;4959180;28;20069;-86
2023/07/16 04:16:32;;;;;;;10.07;2.53;;;19.00;88.30;;;19.77;62.58;100104.53;4959216;28;20133;-86
2023/07/16 04:19:00;;;;;;;5.90;2.40;;;18.90;87.30;;;19.75;62.23;100112.09;4958535;28;20126;-86
2023/07/16 04:21:27;;;;;;;6.93;2.20;;;18.90;87.30;;;19.76;62.55;100116.41;4958385;28;20587;-86
2023/07/16 04:23:55;;;;;;;10.65;2.25;;;18.90;87.90;;;19.78;63.23;100125.88;4956437;28;20129;-85
2023/07/16 04:26:23;;;;;;;8.93;2.38;;;19.00;88.70;;;19.80;63.60;100122.91;4973017;28;20158;-85
2023/07/16 04:28:50;;;;;;;7.85;3.10;;;19.00;88.50;;;19.78;63.37;100119.66;4972925;28;20087;-85
2023/07/16 04:31:17;;;;;;;8.15;3.03;;;19.00;88.10;;;19.81;62.38;100124.50;4958503;28;20416;-85
2023/07/16 04:33:45;;;;;;;9.20;2.60;;;19.00;87.20;;;19.83;63.09;100127.75;4956789;28;20523;-86
2023/07/16 04:36:12;;;;;;;9.20;2.60;;;19.00;87.60;;;19.73;62.35;100123.22;4973181;28;20043;-85
2023/07/16 04:38:39;;;;;;;9.80;2.47;;;19.00;86.90;;;19.73;62.58;100135.94;4958710;28;20423;-85
2023/07/16 04:41:08;;;;;;;7.20;2.53;;;18.90;86.90;;;19.71;62.20;100136.19;4973309;28;20049;-84
2023/07/16 04:43:37;;;;;;;10.65;3.28;;;18.90;87.10;;;19.77;62.22;100135.09;4973708;28;20134;-86
2023/07/16 04:46:05;;;;;;;6.93;2.60;;;19.00;86.70;;;19.83;62.08;100140.47;4959695;28;20051;-85
2023/07/16 04:48:32;;;;;;;9.80;2.88;;;19.00;86.30;;;19.98;61.73;100146.59;4958510;28;20061;-85
2023/07/16 04:50:59;;;;;;;7.03;2.92;;;19.20;86.30;;;20.10;62.00;100148.13;4958544;28;20051;-86
2023/07/16 04:53:26;;;;;;;7.65;2.85;;;19.30;86.80;;;20.23;62.01;100147.50;4972614;28;20079;-86
2023/07/16 04:55:54;;;;;;;9.45;3.00;;;19.40;86.30;;;20.27;60.24;100145.84;4972955;28;20051;-86
2023/07/16 04:58:23;;;;;;;6.65;2.80;;;19.40;84.50;;;20.30;61.31;100147.97;4957158;28;20057;-85
2023/07/16 05:00:50;;;;;;;8.38;3.08;;;19.60;85.10;;;20.44;60.93;100148.94;4958119;28;20062;-86
2023/07/16 05:03:17;;;;;;;9.40;2.63;;;19.70;84.70;;;20.57;60.14;100145.59;4972853;28;20054;-86
2023/07/16 05:05:44;;;;;;;8.13;2.78;;;19.80;84.10;;;20.71;60.13;100151.16;4972837;28;20093;-86
2023/07/16 05:08:12;;;;;;;8.57;3.25;;;20.00;83.70;;;20.70;59.31;100159.59;4956781;28;20047;-86
2023/07/16 05:10:39;;;;;;;12.02;3.25;;;20.00;83.00;;;20.74;59.44;100164.16;4958014;28;20315;-86
2023/07/16 05:13:07;;;;;;;11.10;3.10;;;20.10;82.60;;;20.82;58.63;100154.56;4957792;28;20035;-86
2023/07/16 05:15:38;;;;;;;9.30;2.90;;;20.20;81.80;;;20.95;59.45;100161.22;4940507;29;20051;-86
2023/07/16 05:18:05;;;;;;;10.70;3.15;;;20.30;82.50;;;21.04;59.19;100149.47;4956109;28;20143;-85
2023/07/16 05:20:32;;;;;;;7.13;2.70;;;20.40;82.00;;;21.09;59.37;100154.81;4955643;28;20055;-86
2023/07/16 05:23:00;;;;;;;9.60;3.28;;;20.50;82.30;;;21.17;59.62;100153.34;4956303;28;20051;-85
2023/07/16 05:25:27;;;;;;;12.57;3.20;;;20.60;82.40;;;21.17;57.94;100160.69;4957275;28;20158;-86
2023/07/16 05:27:55;;;;;;;13.82;3.28;;;20.70;80.40;;;21.25;58.04;100154.63;4957173;29;20039;-85
2023/07/16 05:30:23;;;;;;;9.40;2.92;;;20.80;80.40;;;21.32;58.25;100169.47;4957340;28;20050;-85
2023/07/16 05:32:51;;;;;;;8.90;3.38;;;20.90;80.80;;;21.39;58.81;100163.72;4971537;28;20043;-85
2023/07/16 05:35:19;;;;;;;16.90;3.97;;;21.00;80.60;;;21.45;57.12;100161.75;4955206;28;20054;-86
2023/07/16 05:37:46;;;;;;;10.05;2.92;;;21.10;79.00;;;21.48;58.17;100170.13;4957390;28;20068;-85
2023/07/16 05:40:14;;;;;;;12.20;3.15;;;21.10;80.20;;;21.56;57.68;100172.16;4956765;28;20111;-85
2023/07/16 05:42:41;;;;;;;7.20;2.50;;;21.20;79.00;;;21.63;56.40;100162.88;4957496;28;20039;-86
2023/07/16 05:45:09;;;;;;;13.80;3.20;;;21.30;77.70;;;21.66;56.76;100162.28;4956147;28;20194;-86
2023/07/16 05:47:37;;;;;;;12.20;3.28;;;21.40;78.00;;;21.66;53.38;100167.69;4956361;29;20039;-86
2023/07/16 05:50:07;;;;;;;8.95;3.28;;;21.50;74.80;;;21.52;56.37;100178.47;4957360;28;20484;-86
2023/07/16 05:52:35;;;;;;;9.85;3.30;;;21.40;76.80;;;21.62;55.20;100177.53;4957533;28;20043;-86
2023/07/16 05:55:02;;;;;;;10.10;3.25;;;21.40;75.80;;;21.58;56.30;100171.91;4957229;29;20050;-85
2023/07/16 05:57:29;;;;;;;11.15;3.50;;;21.40;76.80;;;21.69;57.00;100175.28;4971396;28;20059;-86
2023/07/16 05:59:56;;;;;;;11.73;3.60;;;21.50;77.80;;;21.80;56.25;100182.97;4971298;28;20070;-86
2023/07/16 06:02:24;;;;;;;9.60;3.00;;;21.60;76.80;;;21.89;54.95;100183.13;4957094;28;20125;-86
2023/07/16 06:04:51;;;;;;;10.07;3.67;;;21.70;75.60;;;21.84;55.05;100192.16;4970821;28;20392;-86
2023/07/16 06:07:20;;;;;;;9.10;3.28;;;21.70;75.30;;;21.92;54.51;100188.00;4954391;28;20043;-86
2023/07/16 06:09:48;;;;;;;9.13;3.50;;;21.80;74.80;;;22.06;55.21;100180.72;4955970;28;20106;-86
2023/07/16 06:12:15;;;;;;;10.40;3.53;;;22.00;75.30;;;22.08;55.01;100191.28;4956224;28;20501;-86
2023/07/16 06:14:42;;;;;;;10.80;3.70;;;22.00;74.50;;;22.16;55.39;100193.38;4956441;28;20054;-85
2023/07/16 06:17:10;;;;;;;10.05;3.45;;;22.10;75.60;;;22.21;55.15;100195.19;4956448;28;20058;-86
2023/07/16 06:19:37;;;;;;;9.45;3.65;;;22.10;74.80;;;22.06;53.10;100185.34;4970460;28;20054;-85
2023/07/16 06:22:05;;;;;;;16.17;4.78;;;22.10;72.60;;;21.97;53.54;100197.97;4955040;29;20045;-85
2023/07/16 06:24:33;;;;;;;11.55;3.80;;;21.90;72.90;;;22.10;53.75;100200.72;4955407;29;20074;-85
2023/07/16 06:27:01;;;;;;;13.55;4.70;;;22.00;72.90;;;22.24;53.95;100197.31;4938913;29;20154;-86
2023/07/16 06:29:28;;;;;;;12.32;4.15;;;22.20;73.50;;;22.26;52.88;100189.69;4953882;28;20520;-86
2023/07/16 06:31:57;;;;;;;9.73;4.13;;;22.20;72.30;;;21.98;53.10;100196.84;4970118;28;20043;-85
2023/07/16 06:34:24;;;;;;;11.43;4.10;;;22.00;72.20;;;22.15;53.72;100204.50;4955655;28;20074;-86
2023/07/16 06:36:52;;;;;;;10.13;4.32;;;22.10;73.10;;;22.30;52.74;100207.81;4955831;28;20050;-85
2023/07/16 06:39:19;;;;;;;12.75;4.28;;;22.30;71.70;;;22.22;52.30;100213.09;4955563;28;20906;-86
2023/07/16 06:41:48;;;;;;;13.45;4.35;;;22.30;71.70;;;22.16;52.74;100208.88;4971128;28;20105;-86
2023/07/16 06:44:15;;;;;;;12.55;4.40;;;22.20;71.10;;;22.29;52.07;100213.53;4956213;28;20086;-86
2023/07/16 06:46:42;;;;;;;11.43;4.60;;;22.30;70.40;;;22.41;53.33;100219.34;4955989;28;20103;-86
2023/07/16 06:49:10;;;;;;;8.55;4.07;;;22.40;72.10;;;22.47;52.64;100217.34;4970833;28;20062;-86
2023/07/16 06:51:37;;;;;;;15.90;4.60;;;22.50;71.30;;;22.52;52.72;100211.81;4956471;28;20515;-86
2023/07/16 06:54:04;;;;;;;14.20;4.30;;;22.60;71.60;;;22.60;51.61;100214.66;4955849;28;20043;-86
2023/07/16 06:56:31;;;;;;;13.45;4.85;;;22.70;69.90;;;22.48;50.87;100217.03;4955041;28;20496;-86
2023/07/16 06:59:00;;;;;;;12.48;4.90;;;22.70;68.50;;;22.35;52.11;100206.91;4955671;28;20138;-85
2023/07/16 07:01:28;;;;;;;11.65;4.75;;;22.50;70.10;;;22.46;50.79;100208.38;4938715;29;20047;-85
2023/07/16 07:03:56;;;;;;;9.95;4.28;;;22.60;69.10;;;22.46;51.37;100205.66;4956355;28;20563;-85
2023/07/16 07:06:23;;;;;;;16.60;5.22;;;22.60;68.40;;;22.55;49.41;100203.88;4956082;28;20130;-86
2023/07/16 07:08:50;;;;;;;11.13;5.10;;;22.70;68.50;;;22.41;51.40;100213.91;4954458;28;20128;-85
2023/07/16 07:11:18;;;;;;;11.82;4.85;;;22.60;68.70;;;22.51;51.00;100207.50;4955845;28;20522;-84
2023/07/16 07:13:45;;;;;;;10.98;4.32;;;22.70;68.70;;;22.53;51.23;100206.06;4955313;28;20500;-85
2023/07/16 07:16:14;;;;;;;16.77;5.05;;;22.70;68.40;;;22.46;50.92;100202.94;4956201;28;20039;-85
2023/07/16 07:18:41;;;;;;;11.32;5.22;;;22.60;68.10;;;22.55;50.58;100211.22;4959702;28;20106;-85
2023/07/16 07:21:08;;;;;;;14.98;5.13;;;22.70;67.70;;;22.34;49.90;100216.16;4969299;28;20141;-84
2023/07/16 07:23:35;;;;;;;14.07;4.82;;;22.50;66.60;;;22.54;48.93;100215.03;4981722;28;20042;-85
2023/07/16 07:26:03;;;;;;;10.32;4.20;;;22.60;66.20;;;22.48;49.05;100218.94;4982788;28;20046;-85
2023/07/16 07:28:30;;;;;;;11.73;5.20;;;22.60;65.80;;;22.35;49.15;100217.78;4982297;28;20023;-85
2023/07/16 07:30:57;;;;;;;13.30;5.05;;;22.50;66.20;;;22.31;48.50;100216.78;4980866;28;20030;-85
2023/07/16 07:33:26;;;;;;;16.45;5.65;;;22.40;65.10;;;22.30;48.85;100224.13;4963239;28;20047;-85
2023/07/16 07:35:55;;;;;;;13.65;4.97;;;22.50;65.60;;;22.47;49.57;100220.84;4958921;29;20073;-85
2023/07/16 07:38:23;;;;;;;16.08;5.07;;;22.60;66.40;;;22.36;48.14;100227.56;4956413;28;20481;-84
2023/07/16 07:40:50;;;;;;;11.13;4.43;;;22.60;64.00;;;22.48;49.88;100225.19;4956722;28;20522;-84
2023/07/16 07:43:17;;;;;;;14.10;6.03;;;22.70;66.70;;;22.54;50.65;100215.84;4957851;28;20074;-85
2023/07/16 07:45:45;;;;;;;11.10;4.93;;;22.80;67.50;;;22.70;50.41;100226.47;4955836;28;20500;-84
2023/07/16 07:48:12;;;;;;;12.88;4.88;;;22.90;67.50;;;22.51;48.62;100224.59;4955498;28;20600;-84
2023/07/16 07:50:41;;;;;;;12.10;5.05;;;22.70;65.00;;;22.51;48.75;100232.75;4956744;28;20054;-85
2023/07/16 07:53:08;;;;;;;12.75;5.10;;;22.70;65.00;;;22.61;48.31;100238.03;4956483;28;20452;-85
2023/07/16 07:55:36;;;;;;;15.70;5.03;;;22.70;64.80;;;22.61;48.89;100237.22;4956816;28;20049;-84
2023/07/16 07:58:03;;;;;;;14.00;5.45;;;22.80;65.00;;;22.79;48.27;100230.09;4955420;29;20054;-85
2023/07/16 08:00:30;;;;;;;14.60;4.82;;;22.90;64.60;;;22.91;48.18;100227.75;4955258;28;20082;-85
2023/07/16 08:02:57;;;;;;;15.30;5.40;;;23.00;64.30;;;22.94;47.73;100232.63;4955577;29;20085;-85
2023/07/16 08:05:24;;;;;;;15.48;4.93;;;23.10;64.00;;;23.05;47.66;100231.31;4956609;28;20043;-85
2023/07/16 08:07:55;;;;;;;11.63;4.97;;;23.20;63.80;;;23.16;47.87;100233.84;4955108;29;20051;-85
2023/07/16 08:10:22;;;;;;;10.63;4.77;;;23.30;64.00;;;23.32;48.76;100241.41;4954747;28;20047;-85
2023/07/16 08:12:50;;;;;;;11.77;4.68;;;23.40;64.60;;;23.43;47.61;100242.03;4955241;28;20302;-85
2023/07/16 08:15:19;;;;;;;9.63;4.80;;;23.60;64.20;;;23.29;46.04;100246.66;4956670;28;20127;-85
2023/07/16 08:17:47;;;;;;;11.65;5.30;;;23.60;61.00;;;23.26;46.78;100242.59;4956666;28;20043;-84
2023/07/16 08:20:15;;;;;;;12.32;4.85;;;23.50;62.00;;;23.21;46.47;100250.06;4955420;28;20066;-85
2023/07/16 08:22:42;;;;;;;12.52;4.95;;;23.40;61.20;;;23.19;46.38;100250.38;4955594;28;20042;-85
2023/07/16 08:25:11;;;;;;;13.98;4.70;;;23.30;62.00;;;23.07;46.23;100242.69;4956744;28;20075;-85
2023/07/16 08:27:38;;;;;;;12.95;5.18;;;23.30;61.50;;;23.18;48.74;100256.09;4956767;28;20540;-85
2023/07/16 08:30:07;;;;;;;10.85;4.90;;;23.30;64.40;;;23.30;48.59;100267.31;4955693;28;20115;-85
2023/07/16 08:32:35;;;;;;;11.88;5.57;;;23.40;64.20;;;23.29;46.85;100255.63;4956674;28;20047;-85
2023/07/16 08:35:02;;;;;;;12.40;5.18;;;23.50;62.40;;;23.10;46.51;100255.69;4956612;28;20047;-85
2023/07/16 08:37:29;;;;;;;13.52;5.22;;;23.40;60.60;;;23.25;47.04;100259.25;4955351;28;20052;-85
2023/07/16 08:39:56;;;;;;;10.35;4.20;;;23.40;62.30;;;23.07;46.38;100255.47;4955951;28;20133;-85
2023/07/16 08:42:25;;;;;;;14.40;5.15;;;23.30;61.30;;;23.02;46.08;100261.03;4956640;28;20086;-84
2023/07/16 08:44:54;;;;;;;10.50;4.32;;;23.20;60.60;;;23.05;46.51;100269.41;4939198;29;20044;-85
2023/07/16 08:47:21;;;;;;;11.55;4.68;;;23.30;61.70;;;23.09;47.48;100264.16;4956250;28;20497;-85
2023/07/16 08:49:55;;;;;;;9.60;4.97;;;23.30;62.60;;;23.05;44.98;100272.13;4955078;28;20044;-86
2023/07/16 08:52:23;;;;;;;10.55;4.97;;;23.20;60.00;;;22.93;46.25;100270.97;4956414;28;20531;-85
2023/07/16 08:54:50;;;;;;;12.23;4.82;;;23.10;61.80;;;23.10;46.94;100277.47;4956648;28;20047;-86
2023/07/16 08:57:19;;;;;;;10.10;4.53;;;23.20;62.20;;;23.21;46.60;100275.38;4956613;28;20485;-86
2023/07/16 08:59:49;;;;;;;11.50;4.63;;;23.40;61.80;;;23.32;45.36;100270.53;4953657;28;20603;-85
2023/07/16 09:02:18;;;;;;;10.15;5.18;;;23.50;60.20;;;23.39;48.43;100269.03;4953697;28;20047;-84
2023/07/16 09:04:47;;;;;;;10.60;4.30;;;23.60;63.60;;;23.50;46.55;100280.53;4954949;28;20058;-85
2023/07/16 09:07:15;;;;;;;13.00;4.00;;;23.80;61.40;;;23.52;44.20;100278.31;4954872;28;20133;-85
2023/07/16 09:09:43;;;;;;;10.50;4.28;;;23.80;58.60;;;23.57;46.13;100289.13;4954811;28;20043;-87
2023/07/16 09:12:13;;;;;;;13.32;4.35;;;23.80;60.20;;;23.53;46.71;100290.03;4952991;28;20814;-85
2023/07/16 09:14:42;;;;;;;12.40;4.30;;;23.80;61.30;;;23.60;45.69;100283.06;4952878;28;20075;-85
2023/07/16 09:17:11;;;;;;;12.20;4.55;;;23.90;60.20;;;23.61;45.25;100286.56;4937040;29;20559;-85
2023/07/16 09:19:38;;;;;;;10.48;4.00;;;23.80;59.40;;;23.56;45.58;100279.31;4952657;28;20145;-85
2023/07/16 09:22:05;;;;;;;10.02;3.88;;;23.70;60.20;;;23.38;45.25;100291.13;4954098;28;20053;-85
2023/07/16 09:24:33;;;;;;;10.35;4.50;;;23.60;59.40;;;23.24;44.88;100301.19;4954244;28;20134;-85
2023/07/16 09:27:01;;;;;;;10.00;4.20;;;23.40;59.40;;;23.13;45.67;100282.31;4952820;28;20048;-85
2023/07/16 09:29:28;;;;;;;11.73;4.47;;;23.30;59.80;;;23.16;46.34;100301.88;4953766;28;20047;-85
2023/07/16 09:31:57;;;;;;;11.82;4.25;;;23.30;60.90;;;23.16;45.64;100291.78;4953259;28;20043;-85
2023/07/16 09:34:29;;;;;;;11.93;4.38;;;23.30;60.10;;;23.25;46.78;100300.88;4952821;28;20138;-85
2023/07/16 09:36:57;;;;;;;13.45;4.53;;;23.40;61.40;;;23.36;45.85;100293.31;4954023;28;20123;-85
2023/07/16 09:39:25;;;;;;;11.73;4.28;;;23.60;60.40;;;23.37;45.39;100298.44;4968366;28;20504;-85
2023/07/16 09:41:53;;;;;;;8.70;3.80;;;23.60;59.70;;;23.33;45.16;100291.22;4952764;28;20043;-85
2023/07/16 09:44:21;;;;;;;9.30;3.80;;;23.50;59.40;;;23.37;45.63;100294.94;4968708;28;20063;-85
2023/07/16 09:46:48;;;;;;;9.52;4.22;;;23.50;60.20;;;23.48;45.55;100293.66;4953799;28;20058;-85
2023/07/16 09:49:16;;;;;;;12.23;4.07;;;23.70;60.20;;;23.49;45.41;100297.19;4953314;28;20142;-85
2023/07/16 09:51:46;;;;;;;10.95;4.30;;;23.70;59.80;;;23.48;44.93;100296.38;4953603;28;20043;-85
2023/07/16 09:54:15;;;;;;;10.68;4.47;;;23.70;59.20;;;23.50;45.12;100290.63;4952317;29;20086;-85
2023/07/16 09:56:49;;;;;;;13.55;4.15;;;23.70;59.50;;;23.59;46.27;100302.41;4952528;29;20058;-85
2023/07/16 09:59:20;;;;;;;14.05;3.90;;;23.80;60.40;;;23.42;43.70;100304.91;4953380;28;20142;-85
2023/07/16 10:01:48;;;;;;;12.38;4.70;;;23.70;57.50;;;23.19;44.83;100306.72;4952533;29;20142;-85
2023/07/16 10:04:17;;;;;;;14.80;4.53;;;23.30;58.60;;;23.17;45.74;100309.72;4952116;29;20146;-85
2023/07/16 10:07:05;;;;;;;10.70;4.00;;;23.20;60.20;;;22.97;44.89;100308.16;4952192;28;20436;-85
2023/07/16 10:09:37;;;;;;;10.48;3.92;;;23.00;59.20;;;23.01;46.34;100313.81;4953260;28;20070;-85
2023/07/16 10:12:16;;;;;;;13.38;4.43;;;23.00;61.40;;;23.11;46.01;100314.44;4952475;28;20155;-85
2023/07/16 10:14:46;;;;;;;10.15;3.83;;;23.10;61.40;;;23.18;45.18;100318.69;4953482;28;20044;-85